Time;durP1;ratioP1;P1;durP2;ratioP2;P2;SDS_P1;SDS_P2;PMS_P1;PMS_P2;Temp;Humidity;BMP_temperature;BMP_pressure;BME280_temperature;BME280_humidity;BME280_pressure;Samples;Min_cycle;Max_cycle;Signal;HPM_P1;HPM_P2
2023/06/26 00:01:39;;;;;;;9.60;6.30;;;;;;;18.39;64.54;98588.31;4891882;29;20762;-62
2023/06/26 00:04:06;;;;;;;7.33;6.03;;;;;;;18.38;64.35;98591.19;4892197;29;20228;-62
2023/06/26 00:06:32;;;;;;;7.23;5.73;;;;;;;18.37;66.16;98590.34;4886086;29;20807;-62
2023/06/26 00:08:59;;;;;;;8.47;6.40;;;;;;;18.30;64.06;98592.16;4891572;29;20259;-62
2023/06/26 00:11:30;;;;;;;8.17;5.83;;;;;;;18.18;63.78;98589.31;4890417;28;20244;-62
2023/06/26 00:14:00;;;;;;;9.93;6.10;;;;;;;18.30;63.21;98602.75;4888003;29;20243;-62
2023/06/26 00:16:26;;;;;;;7.13;5.63;;;;;;;18.24;64.75;98604.38;4888851;28;20245;-62
2023/06/26 00:19:00;;;;;;;7.87;6.40;;;;;;;18.15;63.31;98603.72;4890533;29;20238;-62
2023/06/26 00:21:27;;;;;;;9.90;6.33;;;;;;;18.26;64.65;98604.16;4890791;29;20997;-62
2023/06/26 00:23:59;;;;;;;7.70;5.77;;;;;;;18.18;65.30;98599.88;4891196;29;20230;-62
2023/06/26 00:26:27;;;;;;;8.57;6.80;;;;;;;18.15;64.29;98597.66;4891552;29;20921;-62
2023/06/26 00:28:59;;;;;;;8.90;5.70;;;;;;;18.17;65.31;98594.78;4886918;29;20247;-62
2023/06/26 00:31:26;;;;;;;9.43;6.07;;;;;;;18.15;65.11;98595.00;4886978;28;20246;-62
2023/06/26 00:33:56;;;;;;;8.53;6.40;;;;;;;18.05;65.91;98590.09;4884457;29;20333;-62
2023/06/26 00:36:26;;;;;;;7.27;5.90;;;;;;;18.08;65.53;98599.47;4891521;29;20572;-62
2023/06/26 00:38:57;;;;;;;8.10;6.37;;;;;;;17.99;65.71;98598.81;4885908;29;20250;-62
2023/06/26 00:41:24;;;;;;;9.30;6.37;;;;;;;18.05;65.95;98605.94;4896909;29;20713;-62
2023/06/26 00:43:52;;;;;;;9.33;6.00;;;;;;;18.06;65.29;98606.78;4909476;29;20241;-62
2023/06/26 00:46:19;;;;;;;7.57;6.03;;;;;;;17.99;65.08;98602.28;4891846;29;20240;-62
2023/06/26 00:48:49;;;;;;;7.37;6.00;;;;;;;17.96;65.30;98609.78;4887872;29;20245;-62
2023/06/26 00:51:16;;;;;;;9.67;6.53;;;;;;;17.98;68.28;98602.47;4889822;29;20326;-62
2023/06/26 00:53:43;;;;;;;8.37;6.43;;;;;;;17.92;66.55;98600.63;4893011;29;21065;-62
2023/06/26 00:56:11;;;;;;;8.27;6.33;;;;;;;17.89;65.58;98604.47;4895628;29;20240;-62
2023/06/26 00:58:38;;;;;;;10.27;6.30;;;;;;;17.80;65.52;98601.19;4909100;29;20799;-62
2023/06/26 01:01:08;;;;;;;8.77;6.13;;;;;;;17.89;65.71;98599.19;4889982;29;20297;-62
2023/06/26 01:03:37;;;;;;;9.13;6.27;;;;;;;17.86;66.93;98596.94;4896217;29;20240;-62
2023/06/26 01:06:04;;;;;;;10.67;6.30;;;;;;;17.80;67.50;98603.00;4892075;29;20771;-62
2023/06/26 01:08:32;;;;;;;8.63;6.40;;;;;;;17.84;67.85;98596.31;4891647;29;20769;-62
2023/06/26 01:11:00;;;;;;;13.20;6.33;;;;;;;17.82;66.15;98607.09;4910152;29;20756;-62
2023/06/26 01:13:29;;;;;;;8.40;6.63;;;;;;;17.80;66.57;98597.72;4890907;29;20264;-62
2023/06/26 01:15:58;;;;;;;10.07;6.90;;;;;;;17.82;66.57;98601.00;4897714;29;20319;-62
2023/06/26 01:18:26;;;;;;;8.33;6.17;;;;;;;17.80;67.38;98611.75;4910617;29;20240;-62
2023/06/26 01:20:58;;;;;;;8.37;6.53;;;;;;;17.80;66.69;98592.44;4888630;29;20237;-62
2023/06/26 01:23:32;;;;;;;8.13;6.50;;;;;;;17.78;68.66;98595.31;4893714;29;20236;-62
2023/06/26 01:26:12;;;;;;;10.10;6.03;;;;;;;17.72;67.53;98588.19;4892149;29;20244;-62
2023/06/26 01:28:43;;;;;;;8.93;6.50;;;;;;;17.72;68.46;98582.91;4893293;29;20260;-62
2023/06/26 01:31:11;;;;;;;9.57;6.73;;;;;;;17.70;68.24;98583.06;4894514;29;20275;-62
2023/06/26 01:33:39;;;;;;;9.50;6.97;;;;;;;17.67;69.34;98587.94;4890269;29;20228;-62
2023/06/26 01:36:06;;;;;;;11.00;6.63;;;;;;;17.66;67.47;98579.22;4916174;29;20945;-62
2023/06/26 01:38:35;;;;;;;10.50;7.00;;;;;;;17.63;68.96;98584.09;4912107;29;20244;-62
2023/06/26 01:41:02;;;;;;;9.30;6.37;;;;;;;17.52;69.82;98578.34;4907632;29;20656;-62
2023/06/26 01:43:41;;;;;;;8.27;6.10;;;;;;;17.45;69.45;98582.00;4890065;29;20251;-62
2023/06/26 01:46:17;;;;;;;9.83;6.20;;;;;;;17.48;69.03;98574.47;4914745;29;20288;-62
2023/06/26 01:48:50;;;;;;;10.20;6.67;;;;;;;17.52;70.40;98570.44;4912495;29;20232;-62
2023/06/26 01:51:18;;;;;;;9.13;6.50;;;;;;;17.43;69.87;98576.09;4893822;29;20242;-62
2023/06/26 01:53:52;;;;;;;10.60;7.50;;;;;;;17.53;70.96;98576.50;4892955;29;20323;-62
2023/06/26 01:56:19;;;;;;;9.97;6.93;;;;;;;17.52;71.02;98570.44;4914940;29;20242;-62
2023/06/26 01:58:49;;;;;;;11.97;6.60;;;;;;;17.49;70.59;98570.84;4889177;29;20271;-62
2023/06/26 02:01:16;;;;;;;9.70;6.63;;;;;;;17.60;69.74;98569.44;4889498;29;20607;-62
2023/06/26 02:03:42;;;;;;;9.53;6.70;;;;;;;17.50;71.05;98571.63;4892408;29;20225;-62
2023/06/26 02:06:09;;;;;;;9.27;6.87;;;;;;;17.47;70.52;98569.41;4892995;29;20242;-62
2023/06/26 02:08:36;;;;;;;8.57;6.57;;;;;;;17.47;71.01;98567.56;4888155;29;20244;-62
2023/06/26 02:11:03;;;;;;;9.03;6.83;;;;;;;17.46;71.99;98570.44;4891831;29;20247;-62
2023/06/26 02:13:29;;;;;;;11.23;7.23;;;;;;;17.41;71.87;98563.91;4894720;29;20259;-62
2023/06/26 02:15:58;;;;;;;8.83;6.43;;;;;;;17.36;70.68;98565.50;4897467;29;20232;-62
2023/06/26 02:18:25;;;;;;;10.10;6.70;;;;;;;17.39;72.35;98565.94;4898541;29;20295;-62
2023/06/26 02:20:51;;;;;;;9.17;6.43;;;;;;;17.35;72.55;98563.88;4895763;29;20236;-62
2023/06/26 02:23:18;;;;;;;11.70;7.10;;;;;;;17.38;72.32;98559.03;4897583;29;20225;-63
2023/06/26 02:25:44;;;;;;;9.77;6.97;;;;;;;17.30;74.52;98559.19;4913120;29;20840;-63
2023/06/26 02:28:11;;;;;;;8.67;6.43;;;;;;;17.33;73.10;98545.63;4902448;29;20300;-63
2023/06/26 02:30:37;;;;;;;11.20;6.70;;;;;;;17.30;74.02;98547.81;4897550;28;20246;-63
2023/06/26 02:33:05;;;;;;;9.40;6.57;;;;;;;17.35;74.04;98548.88;4906309;29;20699;-62
2023/06/26 02:35:33;;;;;;;9.17;6.77;;;;;;;17.33;75.00;98542.16;4896951;29;20738;-62
2023/06/26 02:37:59;;;;;;;10.83;6.23;;;;;;;17.24;73.95;98546.78;4899628;29;20811;-63
2023/06/26 02:40:26;;;;;;;9.90;6.67;;;;;;;17.34;73.68;98547.25;4899246;29;20284;-63
2023/06/26 02:42:53;;;;;;;10.77;7.37;;;;;;;17.26;73.52;98550.84;4895142;29;20258;-63
2023/06/26 02:45:21;;;;;;;10.40;6.80;;;;;;;17.25;74.03;98549.22;4906859;29;20228;-63
2023/06/26 02:47:47;;;;;;;9.63;6.60;;;;;;;17.19;72.72;98546.56;4899512;29;20239;-63
2023/06/26 02:50:15;;;;;;;8.60;6.37;;;;;;;17.34;72.87;98547.25;4900664;29;20228;-63
2023/06/26 02:53:06;;;;;;;9.70;7.17;;;;;;;17.39;73.41;98551.91;4898686;29;20246;-63
2023/06/26 02:55:33;;;;;;;9.83;6.23;;;;;;;17.42;71.63;98548.88;4897065;29;20242;-63
2023/06/26 02:58:00;;;;;;;9.17;5.90;;;;;;;17.40;71.89;98545.63;4898750;29;20876;-63
2023/06/26 03:04:04;;;;;;;9.07;6.57;;;;;;;17.53;71.53;98547.50;5715483;23;20241;-63
2023/06/26 03:06:32;;;;;;;10.10;6.23;;;;;;;17.50;71.53;98548.72;4944979;28;20230;-63
2023/06/26 03:08:59;;;;;;;10.03;6.60;;;;;;;17.49;72.19;98544.44;4953415;28;20245;-63
2023/06/26 03:11:26;;;;;;;11.57;5.87;;;;;;;17.49;71.66;98555.00;4952203;28;20291;-63
2023/06/26 03:14:17;;;;;;;7.80;5.87;;;;;;;17.56;72.16;98555.84;4953478;28;20706;-63
2023/06/26 03:16:44;;;;;;;7.37;5.83;;;;;;;17.56;72.49;98553.19;4952410;28;20226;-63
2023/06/26 03:19:11;;;;;;;8.77;6.63;;;;;;;17.58;73.11;98552.19;4971206;28;20221;-63
2023/06/26 03:21:59;;;;;;;9.97;6.23;;;;;;;17.62;72.64;98561.34;4952843;28;20261;-63
2023/06/26 03:24:25;;;;;;;8.53;6.20;;;;;;;17.63;73.15;98562.97;4953674;28;20269;-63
2023/06/26 03:26:52;;;;;;;10.33;6.23;;;;;;;17.63;73.89;98568.25;4948437;28;20237;-63
2023/06/26 03:29:19;;;;;;;8.17;6.50;;;;;;;17.60;74.06;98568.63;4963011;28;20600;-63
2023/06/26 03:31:45;;;;;;;10.13;5.77;;;;;;;17.58;73.91;98566.19;5187490;23;20562;-63
2023/06/26 03:34:13;;;;;;;9.57;6.30;;;;;;;17.61;73.59;98570.25;4944194;28;20222;-63
2023/06/26 03:36:40;;;;;;;9.67;6.50;;;;;;;17.66;74.28;98570.50;4942857;28;20259;-63
2023/06/26 03:39:08;;;;;;;9.33;6.27;;;;;;;17.61;75.14;98567.63;4943094;29;20310;-63
2023/06/26 03:41:36;;;;;;;6.90;5.87;;;;;;;17.59;75.41;98570.44;4936429;28;20244;-63
2023/06/26 03:44:03;;;;;;;7.53;6.10;;;;;;;17.62;76.09;98569.25;4926075;29;20321;-63
2023/06/26 03:46:36;;;;;;;11.27;6.10;;;;;;;17.60;75.23;98564.16;4928509;28;20222;-63
2023/06/26 03:49:03;;;;;;;7.83;5.80;;;;;;;17.64;76.73;98562.75;4926470;29;20243;-63
2023/06/26 03:51:30;;;;;;;8.37;6.13;;;;;;;17.66;76.16;98568.66;4924918;29;20321;-63
2023/06/26 03:53:59;;;;;;;8.63;5.90;;;;;;;17.77;76.97;98563.81;4929225;29;20236;-63
2023/06/26 03:56:28;;;;;;;9.10;6.20;;;;;;;17.74;75.89;98569.47;4925394;29;20223;-63
2023/06/26 03:59:00;;;;;;;10.63;6.10;;;;;;;17.73;76.37;98573.97;4926277;29;20235;-63
2023/06/26 04:01:27;;;;;;;7.43;5.77;;;;;;;17.73;76.53;98584.53;4927117;29;20289;-63
2023/06/26 04:04:01;;;;;;;8.00;6.40;;;;;;;17.73;77.48;98576.59;4928016;29;20227;-63
2023/06/26 04:06:28;;;;;;;7.43;5.50;;;;;;;17.73;77.34;98578.41;4925031;28;20231;-63
2023/06/26 04:09:00;;;;;;;9.27;6.53;;;;;;;17.74;78.58;98583.50;4932253;29;20292;-63
2023/06/26 04:11:34;;;;;;;7.43;6.03;;;;;;;17.77;76.96;98584.94;4924845;29;20235;-63
2023/06/26 04:14:00;;;;;;;9.17;6.23;;;;;;;17.83;77.43;98587.59;4925765;28;20223;-63
2023/06/26 04:16:27;;;;;;;8.20;6.10;;;;;;;17.87;77.10;98590.66;4926093;28;20308;-63
2023/06/26 04:18:59;;;;;;;7.70;5.90;;;;;;;17.94;77.49;98593.31;4927784;29;20718;-63
2023/06/26 04:21:26;;;;;;;8.57;5.90;;;;;;;17.94;76.76;98591.47;4929299;28;20243;-63
2023/06/26 04:23:56;;;;;;;9.20;6.10;;;;;;;17.92;76.87;98592.72;4925484;29;20236;-63
2023/06/26 04:26:23;;;;;;;7.93;6.20;;;;;;;17.98;77.69;98598.00;4928930;28;20293;-63
2023/06/26 04:28:51;;;;;;;7.97;6.50;;;;;;;18.02;77.66;98592.34;4925053;28;21175;-63
2023/06/26 04:31:17;;;;;;;9.63;7.00;;;;;;;18.00;76.60;98598.63;4930816;29;20243;-63
2023/06/26 04:33:44;;;;;;;8.90;5.90;;;;;;;18.04;78.29;98588.47;4925948;29;20235;-63
2023/06/26 04:36:11;;;;;;;6.50;5.57;;;;;;;18.02;79.35;98587.84;4928244;29;20225;-63
2023/06/26 04:38:37;;;;;;;7.90;5.50;;;;;;;18.00;79.39;98588.06;4923893;29;20282;-63
2023/06/26 04:41:04;;;;;;;8.43;6.13;;;;;;;18.03;80.46;98584.19;4929220;29;20235;-63
2023/06/26 04:43:31;;;;;;;8.47;6.30;;;;;;;18.03;79.76;98586.84;4923343;28;20308;-64
2023/06/26 04:45:59;;;;;;;6.63;5.63;;;;;;;18.11;79.06;98581.38;4928806;29;20716;-63
2023/06/26 04:48:27;;;;;;;8.10;6.00;;;;;;;18.19;78.58;98588.31;4926235;29;20780;-63
2023/06/26 04:50:54;;;;;;;7.50;5.63;;;;;;;18.28;77.78;98588.91;4924041;29;20236;-63
2023/06/26 04:53:21;;;;;;;8.87;5.63;;;;;;;18.41;76.43;98594.22;4928977;29;20242;-63
2023/06/26 04:55:48;;;;;;;7.50;5.93;;;;;;;18.57;75.92;98597.47;4925662;29;20253;-63
2023/06/26 04:58:15;;;;;;;7.83;5.57;;;;;;;18.60;75.47;98597.06;4927929;29;20233;-63
2023/06/26 05:00:43;;;;;;;6.87;5.63;;;;;;;18.72;75.35;98599.91;4927985;28;20331;-63
2023/06/26 05:03:12;;;;;;;7.47;5.90;;;;;;;18.80;74.69;98590.97;4925851;29;20310;-63
2023/06/26 05:05:38;;;;;;;8.97;6.10;;;;;;;18.87;74.74;98591.75;4923742;29;20233;-63
2023/06/26 05:08:23;;;;;;;8.97;5.93;;;;;;;18.93;75.37;98590.13;4928408;29;20241;-63
2023/06/26 05:10:50;;;;;;;7.00;5.57;;;;;;;19.01;74.10;98587.28;4925295;29;20231;-63
2023/06/26 05:13:18;;;;;;;6.80;5.77;;;;;;;19.08;74.93;98596.03;4930306;29;20236;-63
2023/06/26 05:15:46;;;;;;;9.60;5.70;;;;;;;19.16;75.10;98595.81;4928279;28;20726;-63
2023/06/26 05:18:14;;;;;;;9.17;6.40;;;;;;;19.20;76.08;98590.88;4929488;28;20737;-63
2023/06/26 05:20:41;;;;;;;6.83;5.83;;;;;;;19.25;75.16;98593.72;4925799;29;20741;-63
2023/06/26 05:23:08;;;;;;;8.47;6.10;;;;;;;19.43;74.52;98592.25;4927697;28;20229;-63
2023/06/26 05:25:35;;;;;;;7.83;6.03;;;;;;;19.45;74.57;98588.38;4924768;29;20297;-63
2023/06/26 05:28:04;;;;;;;8.43;5.90;;;;;;;19.54;74.45;98593.44;4926346;29;20244;-63
2023/06/26 05:30:34;;;;;;;7.43;6.10;;;;;;;19.67;75.43;98593.38;4921809;29;20242;-63
2023/06/26 05:33:02;;;;;;;7.47;5.70;;;;;;;19.72;73.77;98590.91;4925301;29;20252;-63
2023/06/26 05:35:31;;;;;;;7.60;5.70;;;;;;;19.84;73.35;98599.00;4926263;29;20238;-63
2023/06/26 05:37:58;;;;;;;6.53;5.70;;;;;;;20.00;72.12;98599.56;4928676;29;20237;-63
2023/06/26 05:40:26;;;;;;;8.70;6.27;;;;;;;20.17;72.16;98603.31;4927084;29;20240;-63
2023/06/26 05:42:53;;;;;;;6.47;5.50;;;;;;;20.54;71.23;98607.97;4924770;29;20815;-63
2023/06/26 05:45:19;;;;;;;8.00;5.30;;;;;;;21.03;69.90;98613.47;4927307;29;20247;-63
2023/06/26 05:47:46;;;;;;;7.53;5.90;;;;;;;21.38;68.85;98623.50;4923201;29;22326;-63
2023/06/26 05:50:14;;;;;;;6.27;5.30;;;;;;;21.59;66.59;98631.25;4928943;28;20229;-63
2023/06/26 05:52:43;;;;;;;7.50;5.50;;;;;;;21.81;64.39;98637.72;4941138;28;20245;-63
2023/06/26 05:55:11;;;;;;;6.67;5.73;;;;;;;22.03;61.60;98633.78;4929227;29;20239;-63
2023/06/26 05:57:40;;;;;;;7.27;5.83;;;;;;;22.14;62.27;98642.81;4927459;28;20703;-63
2023/06/26 06:00:10;;;;;;;11.37;7.17;;;;;;;22.15;59.52;98644.44;4930941;29;20237;-63
2023/06/26 06:02:41;;;;;;;9.00;7.23;;;;;;;22.20;59.51;98636.59;4927959;28;20242;-63
2023/06/26 06:05:08;;;;;;;10.30;6.97;;;;;;;22.23;59.57;98636.97;4928836;29;20228;-63
2023/06/26 06:07:35;;;;;;;8.40;6.77;;;;;;;22.40;59.18;98638.97;4929828;28;20289;-63
2023/06/26 06:10:04;;;;;;;9.87;6.17;;;;;;;22.50;60.32;98635.78;4930507;28;20248;-63
2023/06/26 06:12:31;;;;;;;10.77;5.67;;;;;;;22.58;62.13;98642.59;4926438;29;20303;-63
2023/06/26 06:14:58;;;;;;;7.07;5.40;;;;;;;22.66;62.87;98644.94;4929448;29;20240;-64
2023/06/26 06:17:25;;;;;;;10.33;6.33;;;;;;;22.81;61.41;98647.97;4930237;29;20237;-64
2023/06/26 06:19:51;;;;;;;7.73;5.90;;;;;;;23.00;62.20;98656.63;4927857;29;20235;-64
2023/06/26 06:22:18;;;;;;;8.00;5.63;;;;;;;23.18;61.67;98656.75;4932761;29;20310;-64
2023/06/26 06:24:45;;;;;;;9.03;5.10;;;;;;;23.32;58.72;98658.16;4926784;29;20325;-64
2023/06/26 06:27:13;;;;;;;8.43;5.80;;;;;;;23.33;56.02;98659.75;4930182;28;20235;-64
2023/06/26 06:29:39;;;;;;;8.10;6.27;;;;;;;23.47;56.70;98660.34;4926179;29;20234;-64
2023/06/26 06:32:07;;;;;;;7.93;5.97;;;;;;;23.58;57.49;98656.84;4928619;29;20741;-64
2023/06/26 06:34:33;;;;;;;8.80;5.73;;;;;;;23.71;58.60;98658.41;4927393;29;20706;-64
2023/06/26 06:37:00;;;;;;;8.00;6.03;;;;;;;23.88;59.24;98649.69;4931136;29;20240;-64
2023/06/26 06:39:27;;;;;;;8.87;5.80;;;;;;;23.99;58.78;98659.53;4930511;28;20714;-64
2023/06/26 06:41:53;;;;;;;9.23;5.77;;;;;;;24.17;56.59;98657.72;4926417;29;20278;-64
2023/06/26 06:44:22;;;;;;;7.47;5.80;;;;;;;24.30;57.37;98656.59;4931065;29;20227;-64
2023/06/26 06:46:48;;;;;;;7.20;5.60;;;;;;;24.45;56.80;98651.53;4927465;29;20245;-64
2023/06/26 06:49:15;;;;;;;10.90;7.63;;;;;;;24.41;53.21;98670.91;4929418;28;20577;-61
2023/06/26 06:51:42;;;;;;;11.53;7.07;;;;;;;24.23;53.97;98671.94;4923870;29;20241;-63
2023/06/26 06:54:08;;;;;;;10.73;7.13;;;;;;;24.41;54.68;98677.06;4929040;29;20226;-63
2023/06/26 06:56:35;;;;;;;10.30;7.63;;;;;;;24.51;55.49;98684.41;4925243;29;20236;-63
2023/06/26 06:59:01;;;;;;;10.27;7.37;;;;;;;24.53;56.12;98676.97;4935143;28;20236;-63
2023/06/26 07:01:29;;;;;;;8.43;7.20;;;;;;;24.68;54.68;98679.13;4927778;28;20278;-63
2023/06/26 07:03:59;;;;;;;13.67;7.70;;;;;;;24.46;56.17;98679.00;4927939;29;20699;-63
2023/06/26 07:06:26;;;;;;;8.23;6.83;;;;;;;24.54;57.07;98678.59;4929131;29;20630;-63
2023/06/26 07:09:18;;;;;;;10.10;7.47;;;;;;;24.54;55.73;98685.81;4924788;28;20251;-63
2023/06/26 07:11:46;;;;;;;9.27;7.50;;;;;;;24.18;57.08;98688.66;4926944;29;20480;-63
2023/06/26 07:14:12;;;;;;;9.40;7.63;;;;;;;23.96;57.27;98685.81;4928422;28;20836;-63
2023/06/26 07:16:40;;;;;;;12.07;7.97;;;;;;;24.22;57.39;98694.31;4923893;29;20234;-63
2023/06/26 07:19:07;;;;;;;9.40;7.70;;;;;;;24.36;57.22;98694.84;4929628;28;20232;-63
2023/06/26 07:21:33;;;;;;;9.97;7.87;;;;;;;24.73;57.52;98692.56;4925005;29;20239;-63
2023/06/26 07:24:00;;;;;;;9.73;7.40;;;;;;;24.91;56.31;98685.34;4928033;29;21176;-63
2023/06/26 07:26:26;;;;;;;14.47;7.97;;;;;;;25.15;56.31;98685.16;4930685;28;20719;-63
2023/06/26 07:28:59;;;;;;;10.13;7.17;;;;;;;25.35;55.71;98698.03;4924057;29;20246;-63
2023/06/26 07:31:26;;;;;;;10.50;7.30;;;;;;;25.36;55.99;98686.28;4927507;28;20701;-63
2023/06/26 07:34:19;;;;;;;9.47;7.33;;;;;;;25.57;54.01;98694.56;4924721;29;20240;-63
2023/06/26 07:36:46;;;;;;;8.83;7.37;;;;;;;25.61;54.45;98698.38;4926598;28;20230;-63
2023/06/26 07:39:12;;;;;;;11.17;7.60;;;;;;;25.85;54.92;98695.44;4931156;28;20292;-63
2023/06/26 07:41:41;;;;;;;7.57;6.50;;;;;;;25.93;55.82;98687.81;4925254;29;20252;-63
2023/06/26 07:44:07;;;;;;;9.57;7.53;;;;;;;26.23;54.70;98697.22;4926652;29;20237;-63
2023/06/26 07:46:34;;;;;;;8.43;7.07;;;;;;;26.42;52.15;98702.22;4926844;29;20601;-63
2023/06/26 07:49:00;;;;;;;10.87;7.17;;;;;;;26.27;50.62;98702.91;4924851;28;20732;-64
2023/06/26 07:51:28;;;;;;;9.77;7.32;;;;;;;26.35;50.86;98707.78;4923848;29;20721;-64
2023/06/26 07:53:59;;;;;;;8.80;6.75;;;;;;;26.31;49.08;98706.69;4927791;29;20244;-64
2023/06/26 07:56:26;;;;;;;8.27;7.20;;;;;;;26.16;50.31;98715.34;4930532;28;20238;-64
2023/06/26 07:59:01;;;;;;;9.20;7.35;;;;;;;26.06;50.60;98710.66;4924952;29;20271;-64
2023/06/26 08:01:27;;;;;;;10.20;7.70;;;;;;;25.93;51.26;98714.56;4925627;28;20245;-64
2023/06/26 08:03:59;;;;;;;11.13;6.75;;;;;;;26.07;50.58;98714.97;4926997;29;20243;-64
2023/06/26 08:06:26;;;;;;;11.53;7.20;;;;;;;26.27;49.88;98715.44;4927338;29;20332;-64
2023/06/26 08:08:53;;;;;;;8.50;6.80;;;;;;;26.28;50.90;98717.88;4922953;29;20309;-64
2023/06/26 08:11:22;;;;;;;11.55;7.35;;;;;;;26.36;47.91;98724.66;4924975;29;20232;-64
2023/06/26 08:13:49;;;;;;;11.15;7.00;;;;;;;26.21;46.24;98719.94;4926021;28;20225;-64
2023/06/26 08:16:15;;;;;;;9.57;6.75;;;;;;;25.93;48.81;98721.75;4927123;29;20253;-64
2023/06/26 08:18:42;;;;;;;12.30;6.80;;;;;;;26.03;48.48;98726.41;4925320;29;20229;-64
2023/06/26 08:21:10;;;;;;;8.33;6.10;;;;;;;26.21;46.72;98727.97;4924550;29;20225;-64
2023/06/26 08:23:37;;;;;;;10.63;6.30;;;;;;;26.28;46.50;98730.44;4926628;29;20242;-64
2023/06/26 08:26:05;;;;;;;8.25;6.85;;;;;;;26.59;46.45;98744.94;4928530;29;20264;-64
2023/06/26 08:28:31;;;;;;;9.50;6.67;;;;;;;26.61;46.50;98745.47;4924068;29;20229;-64
2023/06/26 08:30:58;;;;;;;9.27;6.83;;;;;;;26.67;46.75;98741.00;4925618;29;20253;-64
2023/06/26 08:33:24;;;;;;;8.03;6.77;;;;;;;26.77;47.38;98748.31;4925623;29;20301;-64
2023/06/26 08:35:51;;;;;;;8.93;7.00;;;;;;;26.76;48.23;98746.69;4926426;28;20234;-64
2023/06/26 08:38:18;;;;;;;11.45;7.10;;;;;;;26.78;48.00;98749.91;4931970;29;20283;-64
2023/06/26 08:40:44;;;;;;;7.68;6.88;;;;;;;26.50;48.74;98754.50;4922799;28;20234;-64
2023/06/26 08:43:12;;;;;;;9.45;7.13;;;;;;;26.52;47.80;98771.09;4926948;29;20244;-64
2023/06/26 08:45:39;;;;;;;8.77;7.50;;;;;;;26.65;48.09;98776.03;4922556;29;20227;-64
2023/06/26 08:48:09;;;;;;;12.43;7.32;;;;;;;26.58;47.68;98766.63;4928502;28;20796;-64
2023/06/26 08:50:36;;;;;;;10.23;7.25;;;;;;;26.90;47.22;98772.00;4926758;28;20315;-64
2023/06/26 08:53:09;;;;;;;9.88;7.15;;;;;;;26.57;48.61;98789.09;4929004;28;20257;-64
2023/06/26 08:55:39;;;;;;;9.48;7.57;;;;;;;26.42;49.47;98781.72;4926658;29;20224;-64
2023/06/26 08:58:05;;;;;;;11.98;7.50;;;;;;;26.79;48.78;98772.94;4928825;29;20234;-64
2023/06/26 09:00:35;;;;;;;8.47;7.30;;;;;;;26.90;48.92;98782.72;4924227;28;20287;-64
2023/06/26 09:03:04;;;;;;;10.73;7.38;;;;;;;27.09;47.51;98785.81;4924775;29;20239;-64
2023/06/26 09:05:31;;;;;;;10.05;7.20;;;;;;;27.55;48.18;98788.06;4929806;28;20240;-64
2023/06/26 09:07:58;;;;;;;11.85;7.15;;;;;;;27.32;47.52;98789.22;4926834;29;20734;-64
2023/06/26 09:10:25;;;;;;;8.45;6.97;;;;;;;28.02;46.48;98801.69;4929724;29;20229;-64
2023/06/26 09:12:51;;;;;;;12.55;6.85;;;;;;;28.13;45.96;98800.69;4925833;29;21172;-64
2023/06/26 09:15:20;;;;;;;9.30;6.55;;;;;;;28.10;45.46;98800.38;4928490;29;20233;-64
2023/06/26 09:17:49;;;;;;;6.65;6.03;;;;;;;27.74;47.78;98813.63;4925138;28;20262;-64
2023/06/26 09:20:16;;;;;;;9.45;6.50;;;;;;;27.87;46.20;98818.53;4906795;29;20241;-65
2023/06/26 09:22:50;;;;;;;16.38;6.90;;;;;;;28.16;47.29;98823.50;4861818;29;20277;-66
2023/06/26 09:25:18;;;;;;;6.70;6.00;;;;;;;28.33;45.37;98817.13;4910058;29;20233;-66
2023/06/26 09:27:44;;;;;;;11.02;6.72;;;;;;;28.17;46.07;98814.38;4897888;29;20228;-65
2023/06/26 09:30:18;;;;;;;9.30;6.38;;;;;;;27.96;46.40;98821.53;4924586;29;20237;-65
2023/06/26 09:32:44;;;;;;;9.60;6.35;;;;;;;28.22;45.60;98824.34;4920573;29;20242;-65
2023/06/26 09:35:13;;;;;;;9.73;6.00;;;;;;;27.79;47.05;98832.44;4931008;29;20234;-65
2023/06/26 09:37:40;;;;;;;11.43;6.47;;;;;;;27.55;47.71;98832.81;4930055;29;20289;-65
2023/06/26 09:40:08;;;;;;;7.22;6.50;;;;;;;27.01;49.80;98834.53;4929816;29;20281;-64
2023/06/26 09:42:35;;;;;;;10.13;6.82;;;;;;;26.76;49.43;98829.69;4927541;29;20247;-62
2023/06/26 09:45:02;;;;;;;10.77;6.55;;;;;;;27.37;49.47;98829.44;4934566;29;20606;-64
2023/06/26 09:47:31;;;;;;;9.38;6.60;;;;;;;27.06;49.32;98823.03;4924623;29;20228;-65
2023/06/26 09:49:58;;;;;;;9.10;6.18;;;;;;;27.50;49.12;98838.97;4929653;29;20237;-65
2023/06/26 09:52:28;;;;;;;9.63;6.20;;;;;;;27.78;48.13;98836.19;4929989;28;20241;-64
2023/06/26 09:55:08;;;;;;;7.90;6.13;;;;;;;28.06;47.17;98834.19;4929040;29;20268;-65
2023/06/26 09:57:36;;;;;;;11.85;5.95;;;;;;;27.82;47.89;98838.06;4924541;29;20225;-66
2023/06/26 10:00:03;;;;;;;8.70;6.20;;;;;;;28.10;47.74;98838.75;4928682;29;20324;-66
2023/06/26 10:02:39;;;;;;;13.50;6.13;;;;;;;28.29;47.29;98844.50;4925183;28;20324;-65
2023/06/26 10:05:06;;;;;;;6.50;5.82;;;;;;;28.20;46.66;98829.97;4932756;29;20237;-65
2023/06/26 10:07:35;;;;;;;10.07;5.70;;;;;;;28.33;47.05;98825.19;4928327;29;20241;-66
2023/06/26 10:10:03;;;;;;;6.97;5.85;;;;;;;28.51;46.87;98835.44;4930486;28;20249;-66
2023/06/26 10:12:31;;;;;;;7.47;6.47;;;;;;;28.06;46.78;98829.63;4928509;29;20234;-66
2023/06/26 10:15:00;;;;;;;7.53;5.32;;;;;;;28.40;45.83;98828.44;4930108;29;20258;-63
2023/06/26 10:17:33;;;;;;;8.48;5.85;;;;;;;28.60;45.48;98834.94;4926674;29;20250;-65
2023/06/26 10:20:03;;;;;;;10.02;5.97;;;;;;;29.12;46.28;98835.84;4928427;29;20853;-65
2023/06/26 10:22:34;;;;;;;11.07;5.95;;;;;;;28.97;44.33;98834.75;4917423;29;20226;-65
2023/06/26 10:25:06;;;;;;;7.65;5.78;;;;;;;29.16;45.43;98828.84;4929719;29;20238;-65
2023/06/26 10:27:36;;;;;;;10.00;5.75;;;;;;;28.88;45.32;98836.34;4926290;28;20242;-65
2023/06/26 10:30:07;;;;;;;8.77;6.15;;;;;;;28.23;45.92;98823.28;4930639;29;20782;-66
2023/06/26 10:32:34;;;;;;;7.10;6.00;;;;;;;27.79;46.00;98827.88;4924126;29;20582;-66
2023/06/26 10:35:02;;;;;;;11.02;5.35;;;;;;;28.21;44.69;98844.22;4918799;29;20241;-66
2023/06/26 10:37:43;;;;;;;7.15;6.00;;;;;;;28.05;46.28;98846.78;4940208;28;20298;-66
2023/06/26 10:40:12;;;;;;;8.48;5.40;;;;;;;28.20;44.45;98847.97;4929177;29;20333;-65
2023/06/26 10:42:39;;;;;;;6.95;5.28;;;;;;;27.88;45.71;98840.78;4928180;28;20250;-65
2023/06/26 10:45:15;;;;;;;7.72;5.20;;;;;;;27.55;47.06;98843.53;4929272;29;20235;-65
2023/06/26 10:47:43;;;;;;;7.32;5.82;;;;;;;28.05;45.27;98848.69;4905045;29;20641;-65
2023/06/26 10:50:25;;;;;;;6.13;4.90;;;;;;;28.49;45.22;98851.00;4922671;28;20238;-65
2023/06/26 10:53:18;;;;;;;5.80;5.10;;;;;;;28.22;43.21;98854.66;4927651;28;20238;-66
2023/06/26 10:55:51;;;;;;;8.43;5.15;;;;;;;28.50;43.07;98846.47;4925079;29;20257;-66
2023/06/26 10:58:31;;;;;;;7.20;5.10;;;;;;;28.96;42.27;98851.94;4934006;28;20285;-64
2023/06/26 11:01:23;;;;;;;6.20;4.40;;;;;;;29.23;42.25;98853.59;4927039;29;20234;-59
2023/06/26 11:04:02;;;;;;;8.75;5.22;;;;;;;29.22;40.15;98851.97;4922803;28;20246;-67
2023/06/26 11:06:38;;;;;;;6.53;4.28;;;;;;;28.96;40.80;98851.16;4926474;28;20340;-67
2023/06/26 11:09:08;;;;;;;7.05;4.78;;;;;;;28.53;42.13;98851.31;4929289;29;20226;-67
2023/06/26 11:12:08;;;;;;;5.65;4.00;;;;;;;28.76;41.80;98851.88;4925628;29;21283;-69
2023/06/26 11:14:35;;;;;;;9.73;4.30;;;;;;;29.22;42.71;98849.28;4923624;28;20241;-67
2023/06/26 11:17:05;;;;;;;4.93;4.18;;;;;;;28.62;41.18;98865.81;4930280;29;20230;-69
2023/06/26 11:19:32;;;;;;;5.90;3.85;;;;;;;28.63;41.62;98855.88;4911740;29;20232;-70
2023/06/26 11:22:06;;;;;;;9.60;4.22;;;;;;;28.84;39.99;98852.22;4932055;29;20591;-65
2023/06/26 11:24:33;;;;;;;6.57;3.75;;;;;;;28.17;40.85;98859.22;4927392;29;20237;-70
2023/06/26 11:27:05;;;;;;;6.22;4.13;;;;;;;28.60;41.32;98861.78;4928869;29;20319;-71
2023/06/26 11:29:33;;;;;;;8.00;4.18;;;;;;;28.45;39.87;98860.66;4925386;29;20729;-71
2023/06/26 11:32:07;;;;;;;7.57;4.05;;;;;;;28.54;39.42;98860.97;4930202;28;20238;-72
2023/06/26 11:34:34;;;;;;;5.95;4.00;;;;;;;28.38;39.46;98866.28;4916759;29;20626;-71
2023/06/26 11:37:04;;;;;;;6.32;3.83;;;;;;;28.40;39.60;98853.41;4930344;28;20614;-71
2023/06/26 11:39:31;;;;;;;5.22;3.60;;;;;;;28.30;39.09;98842.63;4919532;29;20230;-72
2023/06/26 11:41:58;;;;;;;5.03;3.95;;;;;;;28.41;39.29;98855.03;4919161;29;20326;-71
2023/06/26 11:44:30;;;;;;;5.53;4.13;;;;;;;28.53;38.86;98860.16;4927329;29;20230;-71